createdAt,value
2024-01-20T00:00:16.748Z,81.45
2024-01-20T00:03:04.528Z,81.38
2024-01-20T00:05:32.353Z,81.47
2024-01-20T00:08:00.236Z,81.48
2024-01-20T00:10:28.375Z,81.57
2024-01-20T00:12:55.892Z,82.03
2024-01-20T00:15:23.965Z,82.24
2024-01-20T00:17:51.818Z,82.13
2024-01-20T00:20:19.912Z,82.30
2024-01-20T00:22:47.712Z,82.68
2024-01-20T00:25:15.485Z,82.56
2024-01-20T00:27:43.044Z,82.50
2024-01-20T00:30:11.859Z,82.18
2024-01-20T00:32:39.774Z,82.22
2024-01-20T00:35:08.824Z,82.19
2024-01-20T00:37:39.482Z,82.23
2024-01-20T00:40:08.600Z,82.14
2024-01-20T00:42:36.298Z,82.17
2024-01-20T00:45:05.624Z,82.12
2024-01-20T00:47:35.844Z,82.20
2024-01-20T00:50:06.062Z,82.10
2024-01-20T00:52:33.661Z,82.23
2024-01-20T00:55:01.492Z,82.21
2024-01-20T00:57:29.189Z,82.13
2024-01-20T00:59:57.501Z,82.12
2024-01-20T01:02:26.119Z,82.18
2024-01-20T01:04:53.764Z,82.08
2024-01-20T01:07:21.618Z,82.08
2024-01-20T01:09:49.585Z,82.10
2024-01-20T01:12:17.308Z,81.99
2024-01-20T01:14:44.944Z,81.99
2024-01-20T01:17:12.590Z,82.03
2024-01-20T01:19:40.432Z,82.09
2024-01-20T01:22:07.997Z,82.10
2024-01-20T01:24:35.552Z,82.01
2024-01-20T01:27:03.202Z,81.98
2024-01-20T01:29:30.932Z,81.85
2024-01-20T01:31:58.852Z,81.92
2024-01-20T01:34:27.448Z,81.88
2024-01-20T01:36:55.867Z,81.81
2024-01-20T01:39:23.377Z,81.84
2024-01-20T01:41:50.967Z,81.78
2024-01-20T01:44:18.462Z,81.78
2024-01-20T01:46:46.675Z,81.69
2024-01-20T01:49:14.703Z,81.69
2024-01-20T01:51:42.275Z,81.69
2024-01-20T01:54:12.970Z,81.68
2024-01-20T01:56:42.919Z,81.69
2024-01-20T01:59:10.828Z,81.60
2024-01-20T02:01:38.393Z,81.57
2024-01-20T02:04:06.212Z,81.70
2024-01-20T02:06:33.805Z,81.72
2024-01-20T02:09:01.711Z,81.54
2024-01-20T02:11:29.297Z,81.72
2024-01-20T02:13:57.009Z,81.53
2024-01-20T02:16:24.685Z,81.59
2024-01-20T02:18:52.204Z,81.57
2024-01-20T02:21:19.865Z,81.57
2024-01-20T02:23:50.180Z,81.72
2024-01-20T02:26:17.752Z,81.77
2024-01-20T02:28:45.253Z,81.76
2024-01-20T02:31:13.151Z,81.77
2024-01-20T02:33:40.759Z,81.75
2024-01-20T02:36:08.429Z,81.76
2024-01-20T02:38:36.011Z,81.82
2024-01-20T02:41:03.804Z,81.66
2024-01-20T02:43:31.760Z,81.86
2024-01-20T02:45:59.347Z,81.77
2024-01-20T02:48:27.193Z,81.75
2024-01-20T02:50:54.946Z,81.76
2024-01-20T02:53:22.532Z,81.94
2024-01-20T02:55:50.112Z,81.87
2024-01-20T02:58:17.773Z,82.15
2024-01-20T03:00:45.474Z,82.15
2024-01-20T03:03:13.119Z,82.54
2024-01-20T03:05:41.016Z,82.89
2024-01-20T03:08:08.780Z,83.16
2024-01-20T03:10:36.292Z,83.36
2024-01-20T03:13:04.080Z,83.14
2024-01-20T03:15:32.024Z,83.07
2024-01-20T03:17:59.642Z,82.82
2024-01-20T03:20:27.281Z,82.88
2024-01-20T03:22:54.796Z,82.64
2024-01-20T03:25:22.374Z,82.49
2024-01-20T03:27:49.863Z,82.81
2024-01-20T03:30:17.515Z,82.89
2024-01-20T03:32:45.158Z,82.82
2024-01-20T03:35:12.754Z,82.85
2024-01-20T03:37:40.800Z,82.94
2024-01-20T03:40:09.486Z,82.82
2024-01-20T03:42:37.089Z,82.78
2024-01-20T03:45:05.107Z,82.61
2024-01-20T03:47:34.215Z,82.58
2024-01-20T03:50:04.957Z,82.68
2024-01-20T03:52:32.618Z,82.57
2024-01-20T03:55:00.183Z,82.63
2024-01-20T03:57:27.840Z,82.79
2024-01-20T03:59:55.424Z,82.90
2024-01-20T04:02:22.956Z,82.98
2024-01-20T04:04:50.533Z,83.51
2024-01-20T04:07:18.074Z,84.44
2024-01-20T04:09:45.654Z,84.62
2024-01-20T04:12:13.271Z,84.36
2024-01-20T04:14:40.757Z,84.53
2024-01-20T04:17:08.295Z,84.34
2024-01-20T04:19:35.883Z,84.17
2024-01-20T04:22:03.573Z,84.48
2024-01-20T04:24:31.155Z,84.73
2024-01-20T04:26:58.715Z,84.81
2024-01-20T04:29:26.229Z,85.09
2024-01-20T04:31:53.862Z,85.11
2024-01-20T04:34:21.557Z,85.01
2024-01-20T04:36:49.438Z,84.69
2024-01-20T04:39:17.009Z,84.70
2024-01-20T04:41:44.594Z,84.39
2024-01-20T04:44:12.346Z,84.31
2024-01-20T04:46:39.877Z,84.09
2024-01-20T04:49:08.246Z,84.06
2024-01-20T04:51:36.057Z,83.91
2024-01-20T04:54:03.738Z,84.08
2024-01-20T04:56:31.343Z,83.96
2024-01-20T04:58:58.893Z,83.80
2024-01-20T05:01:26.450Z,83.82
2024-01-20T05:03:54.205Z,83.72
2024-01-20T05:06:22.005Z,83.82
2024-01-20T05:08:49.763Z,83.64
2024-01-20T05:11:17.310Z,83.58
2024-01-20T05:13:44.956Z,83.60
2024-01-20T05:16:12.692Z,83.61
2024-01-20T05:18:40.915Z,83.56
2024-01-20T05:21:14.098Z,83.53
2024-01-20T05:23:41.945Z,83.50
2024-01-20T05:26:09.465Z,83.48
2024-01-20T05:28:36.969Z,83.52
2024-01-20T05:31:04.722Z,83.51
2024-01-20T05:33:32.337Z,83.49
2024-01-20T05:36:00.252Z,83.43
2024-01-20T05:38:27.807Z,83.36
2024-01-20T05:40:57.154Z,83.43
2024-01-20T05:43:24.693Z,83.30
2024-01-20T05:45:52.215Z,83.24
2024-01-20T05:48:19.819Z,83.21
2024-01-20T05:50:48.435Z,83.05
2024-01-20T05:53:19.220Z,83.19
2024-01-20T05:55:46.736Z,83.10
2024-01-20T05:58:15.460Z,82.99
2024-01-20T06:00:43.166Z,83.07
2024-01-20T06:03:10.817Z,82.87
2024-01-20T06:05:38.451Z,82.97
2024-01-20T06:08:06.285Z,82.93
2024-01-20T06:10:33.829Z,82.89
2024-01-20T06:13:01.368Z,82.85
2024-01-20T06:15:29.014Z,82.78
2024-01-20T06:17:56.560Z,82.75
2024-01-20T06:20:24.299Z,82.81
2024-01-20T06:22:51.885Z,82.77
2024-01-20T06:25:19.452Z,82.80
2024-01-20T06:27:47.037Z,82.85
2024-01-20T06:30:14.824Z,82.86
2024-01-20T06:32:42.411Z,82.69
2024-01-20T06:35:10.322Z,82.90
2024-01-20T06:37:37.870Z,82.75
2024-01-20T06:40:05.998Z,82.75
2024-01-20T06:42:33.621Z,82.83
2024-01-20T06:45:01.924Z,82.70
2024-01-20T06:47:30.827Z,82.84
2024-01-20T06:49:58.408Z,82.72
2024-01-20T06:52:25.972Z,82.83
2024-01-20T06:54:53.561Z,82.84
2024-01-20T06:57:21.193Z,82.80
2024-01-20T06:59:48.785Z,82.87
2024-01-20T07:02:16.726Z,82.88
2024-01-20T07:04:44.261Z,82.89
2024-01-20T07:07:12.230Z,82.81
2024-01-20T07:09:41.170Z,82.80
2024-01-20T07:12:09.680Z,82.77
2024-01-20T07:14:37.290Z,82.78
2024-01-20T07:17:06.202Z,82.86
2024-01-20T07:19:33.803Z,82.80
2024-01-20T07:22:01.423Z,82.87
2024-01-20T07:24:30.255Z,82.75
2024-01-20T07:26:57.917Z,82.99
2024-01-20T07:29:26.228Z,82.84
2024-01-20T07:31:53.854Z,82.99
2024-01-20T07:34:21.490Z,82.74
2024-01-20T07:36:49.234Z,82.76
2024-01-20T07:39:16.905Z,82.76
2024-01-20T07:41:44.461Z,82.71
2024-01-20T07:44:12.336Z,82.70
2024-01-20T07:46:39.944Z,82.54
2024-01-20T07:49:07.561Z,82.55
2024-01-20T07:51:35.560Z,82.59
2024-01-20T07:54:03.410Z,82.57
2024-01-20T07:56:32.065Z,82.56
2024-01-20T07:58:59.807Z,82.57
2024-01-20T08:01:27.428Z,82.51
2024-01-20T08:03:55.016Z,82.61
2024-01-20T08:06:22.783Z,82.64
2024-01-20T08:08:50.623Z,82.67
2024-01-20T08:11:19.487Z,82.61
2024-01-20T08:13:48.366Z,82.61
2024-01-20T08:16:15.885Z,82.57
2024-01-20T08:18:43.572Z,82.45
2024-01-20T08:21:11.797Z,82.41
2024-01-20T08:23:39.323Z,82.47
2024-01-20T08:26:07.410Z,82.38
2024-01-20T08:28:35.019Z,82.38
2024-01-20T08:31:02.632Z,82.30
2024-01-20T08:33:30.432Z,82.45
2024-01-20T08:35:58.524Z,82.45
2024-01-20T08:38:26.098Z,82.39
2024-01-20T08:40:53.639Z,82.65
2024-01-20T08:43:21.294Z,82.50
2024-01-20T08:45:48.822Z,82.54
2024-01-20T08:48:16.442Z,82.36
2024-01-20T08:50:44.068Z,82.30
2024-01-20T08:53:11.627Z,82.36
2024-01-20T08:55:39.288Z,82.26
2024-01-20T08:58:06.843Z,82.34
2024-01-20T09:00:34.368Z,82.37
2024-01-20T09:03:01.979Z,82.41
2024-01-20T09:05:37.885Z,82.27
2024-01-20T09:08:09.186Z,82.38
2024-01-20T09:10:38.175Z,82.36
2024-01-20T09:13:05.713Z,82.32
2024-01-20T09:15:33.358Z,82.41
2024-01-20T09:18:01.368Z,82.38
2024-01-20T09:20:29.269Z,82.25
2024-01-20T09:22:56.993Z,82.31
2024-01-20T09:25:24.707Z,82.27
2024-01-20T09:27:52.769Z,82.32
2024-01-20T09:30:20.387Z,82.19
2024-01-20T09:32:48.083Z,82.14
2024-01-20T09:35:15.706Z,82.21
2024-01-20T09:37:43.623Z,82.14
2024-01-20T09:40:11.987Z,81.91
2024-01-20T09:42:40.454Z,81.77
2024-01-20T09:45:09.451Z,81.67
2024-01-20T09:47:37.252Z,81.63
2024-01-20T09:50:06.453Z,81.53
2024-01-20T09:52:44.368Z,81.51
2024-01-20T09:55:22.658Z,81.42
2024-01-20T09:57:51.353Z,81.38
2024-01-20T10:00:21.093Z,81.53
2024-01-20T10:02:49.172Z,81.73
2024-01-20T10:05:17.519Z,81.67
2024-01-20T10:07:45.155Z,81.83
2024-01-20T10:10:28.850Z,81.77
2024-01-20T10:12:56.579Z,81.80
2024-01-20T10:15:32.758Z,81.53
2024-01-20T10:18:10.281Z,81.68
2024-01-20T10:20:38.361Z,81.51
2024-01-20T10:23:07.373Z,81.56
2024-01-20T10:25:35.148Z,81.57
2024-01-20T10:28:02.847Z,81.60
2024-01-20T10:30:31.313Z,81.80
2024-01-20T10:33:09.368Z,81.94
2024-01-20T10:35:39.799Z,81.89
2024-01-20T10:38:13.547Z,82.05
2024-01-20T10:40:44.302Z,81.90
2024-01-20T10:43:17.289Z,81.97
2024-01-20T10:46:21.833Z,81.78
2024-01-20T10:48:55.591Z,81.40
2024-01-20T10:51:30.381Z,81.36
2024-01-20T10:53:58.601Z,81.35
2024-01-20T10:56:28.129Z,81.40
2024-01-20T10:59:18.821Z,81.47
2024-01-20T11:01:47.075Z,81.64
2024-01-20T11:04:21.310Z,81.54
2024-01-20T11:06:49.425Z,81.61
2024-01-20T11:09:24.077Z,81.77
2024-01-20T11:12:08.581Z,81.50
2024-01-20T11:14:37.001Z,81.51
2024-01-20T11:17:14.799Z,81.53
2024-01-20T11:19:42.553Z,81.48
2024-01-20T11:22:32.285Z,81.51
2024-01-20T11:25:05.681Z,81.76
2024-01-20T11:27:48.274Z,81.76
2024-01-20T11:30:30.417Z,81.79
2024-01-20T11:32:59.745Z,82.16
2024-01-20T11:35:27.901Z,82.18
2024-01-20T11:37:56.528Z,82.07
2024-01-20T11:40:24.881Z,82.26
2024-01-20T11:42:52.441Z,82.28
2024-01-20T11:45:20.138Z,82.22
2024-01-20T11:47:47.700Z,82.39
2024-01-20T11:50:15.330Z,82.56
2024-01-20T11:52:42.879Z,83.34
2024-01-20T11:55:10.503Z,83.61
2024-01-20T11:57:38.858Z,83.82
2024-01-20T12:00:09.484Z,84.07
2024-01-20T12:02:38.115Z,84.15
2024-01-20T12:05:12.104Z,84.30
2024-01-20T12:07:43.319Z,84.36
2024-01-20T12:10:11.004Z,84.57
2024-01-20T12:12:40.037Z,84.43
2024-01-20T12:15:08.574Z,84.45
2024-01-20T12:17:36.598Z,84.53
2024-01-20T12:20:06.137Z,84.44
2024-01-20T12:22:33.687Z,84.36
2024-01-20T12:25:01.166Z,84.21
2024-01-20T12:27:28.691Z,84.20
2024-01-20T12:29:56.313Z,84.33
2024-01-20T12:32:24.638Z,84.41
2024-01-20T12:34:53.603Z,84.65
2024-01-20T12:37:21.144Z,84.62
2024-01-20T12:39:48.695Z,84.53
2024-01-20T12:42:16.415Z,84.39
2024-01-20T12:44:44.669Z,84.56
2024-01-20T12:47:12.153Z,84.45
2024-01-20T12:49:39.841Z,84.27
2024-01-20T12:52:07.594Z,84.31
2024-01-20T12:54:35.276Z,84.32
2024-01-20T12:57:04.056Z,84.24
2024-01-20T12:59:32.570Z,84.14
2024-01-20T13:02:00.941Z,84.19
2024-01-20T13:04:28.523Z,84.09
2024-01-20T13:06:56.143Z,84.13
2024-01-20T13:09:23.820Z,84.07
2024-01-20T13:11:51.550Z,84.24
2024-01-20T13:14:19.423Z,84.19
2024-01-20T13:16:46.995Z,84.06
2024-01-20T13:19:14.639Z,84.19
2024-01-20T13:21:42.380Z,84.13
2024-01-20T13:24:09.958Z,84.26
2024-01-20T13:26:37.471Z,84.26
2024-01-20T13:29:05.032Z,84.16
2024-01-20T13:31:35.626Z,84.14
2024-01-20T13:34:03.231Z,84.27
2024-01-20T13:36:31.178Z,84.39
2024-01-20T13:38:58.699Z,84.27
2024-01-20T13:41:30.351Z,84.25
2024-01-20T13:43:58.753Z,84.25
2024-01-20T13:46:26.374Z,84.21
2024-01-20T13:48:53.916Z,84.26
2024-01-20T13:51:23.341Z,84.32
2024-01-20T13:53:50.937Z,84.22
2024-01-20T13:56:19.060Z,84.27
2024-01-20T13:58:46.767Z,84.18
2024-01-20T14:01:14.271Z,84.15
2024-01-20T14:03:41.865Z,84.14
2024-01-20T14:06:09.804Z,84.09
2024-01-20T14:08:37.402Z,84.19
2024-01-20T14:11:04.989Z,84.13
2024-01-20T14:13:32.537Z,84.13
2024-01-20T14:16:02.859Z,84.17
2024-01-20T14:18:30.567Z,84.12
2024-01-20T14:20:58.374Z,84.04
2024-01-20T14:23:25.859Z,84.18
2024-01-20T14:25:54.280Z,84.19
2024-01-20T14:28:21.990Z,84.13
2024-01-20T14:30:49.735Z,84.13
2024-01-20T14:33:17.600Z,84.08
2024-01-20T14:35:45.486Z,84.23
2024-01-20T14:38:14.927Z,84.05
2024-01-20T14:40:42.634Z,84.14
2024-01-20T14:43:10.623Z,84.16
2024-01-20T14:45:38.339Z,84.19
2024-01-20T14:48:07.171Z,84.15
2024-01-20T14:50:34.933Z,84.18
2024-01-20T14:53:02.885Z,84.08
2024-01-20T14:55:31.919Z,84.01
2024-01-20T14:58:00.164Z,84.15
2024-01-20T15:00:27.770Z,84.02
2024-01-20T15:02:55.508Z,84.09
2024-01-20T15:05:23.041Z,83.85
2024-01-20T15:07:50.568Z,84.11
2024-01-20T15:10:21.633Z,84.09
2024-01-20T15:12:50.021Z,83.95
2024-01-20T15:15:17.889Z,84.11
2024-01-20T15:17:45.580Z,84.01
2024-01-20T15:20:13.162Z,84.04
2024-01-20T15:22:40.874Z,84.05
2024-01-20T15:25:09.730Z,83.94
2024-01-20T15:27:38.462Z,83.93
2024-01-20T15:30:06.907Z,84.02
2024-01-20T15:32:34.565Z,84.19
2024-01-20T15:35:02.526Z,84.03
2024-01-20T15:37:30.050Z,84.04
2024-01-20T15:39:57.652Z,84.01
2024-01-20T15:42:25.376Z,83.90
2024-01-20T15:44:53.242Z,84.03
2024-01-20T15:47:20.765Z,84.03
2024-01-20T15:49:48.748Z,84.02
2024-01-20T15:52:16.562Z,83.96
2024-01-20T15:54:46.805Z,84.07
2024-01-20T15:57:14.589Z,83.96
2024-01-20T15:59:42.107Z,83.99
2024-01-20T16:02:09.709Z,84.03
2024-01-20T16:04:37.250Z,84.05
2024-01-20T16:07:05.651Z,84.01
2024-01-20T16:09:33.300Z,84.07
2024-01-20T16:12:03.162Z,84.17
2024-01-20T16:14:33.619Z,84.08
2024-01-20T16:17:01.781Z,84.11
2024-01-20T16:19:29.404Z,84.14
2024-01-20T16:21:58.428Z,84.28
2024-01-20T16:24:26.028Z,84.20
2024-01-20T16:26:53.736Z,84.21
2024-01-20T16:29:21.316Z,84.09
2024-01-20T16:31:48.940Z,84.36
2024-01-20T16:34:16.520Z,84.28
2024-01-20T16:36:44.452Z,84.38
2024-01-20T16:39:12.186Z,84.36
2024-01-20T16:41:39.701Z,84.37
2024-01-20T16:44:08.262Z,84.29
2024-01-20T16:46:38.497Z,84.40
2024-01-20T16:49:06.247Z,84.38
2024-01-20T16:51:34.113Z,84.32
2024-01-20T16:54:01.838Z,84.38
2024-01-20T16:56:29.467Z,84.25
2024-01-20T16:58:57.724Z,84.26
2024-01-20T17:01:25.316Z,84.24
2024-01-20T17:03:53.160Z,84.30
2024-01-20T17:06:21.383Z,84.32
2024-01-20T17:08:49.123Z,84.13
2024-01-20T17:11:17.421Z,84.29
2024-01-20T17:13:46.037Z,84.22
2024-01-20T17:16:13.721Z,84.37
2024-01-20T17:18:41.414Z,84.21
2024-01-20T17:21:18.083Z,84.30
2024-01-20T17:23:46.115Z,84.30
2024-01-20T17:26:27.002Z,84.16
2024-01-20T17:28:57.565Z,84.36
2024-01-20T17:31:31.811Z,84.37
2024-01-20T17:34:05.202Z,84.37
2024-01-20T17:36:33.597Z,84.28
2024-01-20T17:39:04.801Z,84.34
2024-01-20T17:41:33.064Z,84.25
2024-01-20T17:44:00.724Z,84.24
2024-01-20T17:46:28.506Z,84.29
2024-01-20T17:48:56.218Z,84.13
2024-01-20T17:51:23.894Z,84.32
2024-01-20T17:53:51.808Z,84.22
2024-01-20T17:56:19.382Z,84.20
2024-01-20T17:58:46.861Z,84.37
2024-01-20T18:01:14.514Z,84.31
2024-01-20T18:03:42.207Z,84.23
2024-01-20T18:06:09.969Z,84.26
2024-01-20T18:08:37.775Z,84.29
2024-01-20T18:11:05.609Z,84.36
2024-01-20T18:13:33.258Z,84.34
2024-01-20T18:16:00.903Z,84.35
2024-01-20T18:18:28.731Z,84.22
2024-01-20T18:20:56.759Z,84.36
2024-01-20T18:23:24.314Z,84.40
2024-01-20T18:25:52.293Z,84.35
2024-01-20T18:28:19.812Z,84.35
2024-01-20T18:30:48.119Z,84.16
2024-01-20T18:33:15.816Z,84.43
2024-01-20T18:35:43.417Z,84.32
2024-01-20T18:38:11.442Z,84.31
2024-01-20T18:40:39.736Z,84.31
2024-01-20T18:43:07.800Z,84.26
2024-01-20T18:45:35.443Z,84.25
2024-01-20T18:48:03.449Z,84.34
2024-01-20T18:50:31.299Z,84.35
2024-01-20T18:52:58.863Z,84.31
2024-01-20T18:55:26.636Z,84.34
2024-01-20T18:57:54.169Z,84.23
2024-01-20T19:00:21.838Z,84.36
2024-01-20T19:02:49.494Z,84.50
2024-01-20T19:05:17.085Z,84.51
2024-01-20T19:07:45.511Z,84.51
2024-01-20T19:10:14.610Z,84.46
2024-01-20T19:12:43.856Z,84.29
2024-01-20T19:15:13.906Z,84.25
2024-01-20T19:17:41.536Z,84.04
2024-01-20T19:20:10.663Z,84.01
2024-01-20T19:22:38.442Z,84.05
2024-01-20T19:25:07.470Z,84.13
2024-01-20T19:27:34.990Z,84.23
2024-01-20T19:30:02.551Z,84.10
2024-01-20T19:32:30.304Z,83.89
2024-01-20T19:34:58.065Z,84.15
2024-01-20T19:37:25.917Z,84.10
2024-01-20T19:39:54.106Z,84.01
2024-01-20T19:42:21.812Z,84.06
2024-01-20T19:44:49.284Z,84.07
2024-01-20T19:47:16.784Z,84.11
2024-01-20T19:49:44.486Z,84.12
2024-01-20T19:52:13.313Z,84.11
2024-01-20T19:54:41.559Z,83.91
2024-01-20T19:57:09.320Z,83.94
2024-01-20T19:59:37.651Z,83.83
2024-01-20T20:02:05.572Z,83.95
2024-01-20T20:04:33.268Z,83.92
2024-01-20T20:07:05.372Z,83.82
2024-01-20T20:09:32.922Z,83.93
2024-01-20T20:12:00.553Z,84.01
2024-01-20T20:14:28.147Z,83.93
2024-01-20T20:16:55.694Z,83.89
2024-01-20T20:19:23.295Z,83.95
2024-01-20T20:21:50.904Z,84.00
2024-01-20T20:24:18.997Z,83.90
2024-01-20T20:26:46.520Z,83.87
2024-01-20T20:29:14.601Z,83.82
2024-01-20T20:31:42.568Z,83.83
2024-01-20T20:34:10.290Z,83.74
2024-01-20T20:36:40.656Z,83.87
2024-01-20T20:39:08.786Z,83.67
2024-01-20T20:41:36.429Z,83.67
2024-01-20T20:44:04.900Z,83.64
2024-01-20T20:46:34.847Z,83.52
2024-01-20T20:49:04.450Z,83.48
2024-01-20T20:51:32.285Z,83.53
2024-01-20T20:53:59.833Z,83.48
2024-01-20T20:56:27.464Z,83.53
2024-01-20T20:58:54.987Z,83.48
2024-01-20T21:01:22.587Z,83.29
2024-01-20T21:03:50.349Z,83.42
2024-01-20T21:06:18.015Z,83.32
2024-01-20T21:08:45.579Z,83.25
2024-01-20T21:11:13.172Z,83.30
2024-01-20T21:13:41.301Z,83.30
2024-01-20T21:16:08.860Z,83.18
2024-01-20T21:18:36.605Z,83.24
2024-01-20T21:21:05.427Z,83.15
2024-01-20T21:23:33.664Z,83.17
2024-01-20T21:26:01.270Z,83.15
2024-01-20T21:28:28.799Z,83.09
2024-01-20T21:30:56.322Z,83.19
2024-01-20T21:33:24.087Z,83.17
2024-01-20T21:35:51.678Z,83.00
2024-01-20T21:38:19.643Z,82.83
2024-01-20T21:40:47.907Z,82.83
2024-01-20T21:43:15.633Z,82.82
2024-01-20T21:45:45.204Z,82.93
2024-01-20T21:48:13.599Z,82.86
2024-01-20T21:50:42.053Z,83.02
2024-01-20T21:53:09.608Z,82.72
2024-01-20T21:55:37.210Z,82.86
2024-01-20T21:58:04.926Z,82.77
2024-01-20T22:00:32.474Z,82.65
2024-01-20T22:03:00.207Z,82.60
2024-01-20T22:05:28.222Z,82.44
2024-01-20T22:07:59.867Z,82.32
2024-01-20T22:10:31.210Z,82.42
2024-01-20T22:12:59.138Z,82.38
2024-01-20T22:15:27.286Z,82.41
2024-01-20T22:17:54.848Z,82.28
2024-01-20T22:20:22.434Z,82.25
2024-01-20T22:22:49.874Z,82.20
2024-01-20T22:25:17.432Z,82.22
2024-01-20T22:27:45.451Z,82.26
2024-01-20T22:30:13.589Z,82.15
2024-01-20T22:32:41.226Z,82.19
2024-01-20T22:35:08.945Z,82.11
2024-01-20T22:37:36.706Z,82.22
2024-01-20T22:40:05.090Z,82.25
2024-01-20T22:42:32.714Z,82.18
2024-01-20T22:45:00.395Z,82.25
2024-01-20T22:47:27.981Z,82.25
2024-01-20T22:49:55.588Z,82.25
2024-01-20T22:52:23.041Z,82.32
2024-01-20T22:54:52.192Z,82.31
2024-01-20T22:57:20.260Z,82.55
2024-01-20T22:59:48.026Z,82.62
2024-01-20T23:02:16.065Z,82.58
2024-01-20T23:04:43.812Z,82.61
2024-01-20T23:07:11.431Z,82.59
2024-01-20T23:09:39.104Z,82.55
2024-01-20T23:12:07.040Z,82.48
2024-01-20T23:14:36.617Z,82.46
2024-01-20T23:17:04.723Z,82.46
2024-01-20T23:19:32.284Z,82.40
2024-01-20T23:21:59.835Z,82.56
2024-01-20T23:24:27.342Z,82.62
2024-01-20T23:26:54.816Z,82.61
2024-01-20T23:29:22.242Z,82.77
2024-01-20T23:31:49.854Z,82.63
2024-01-20T23:34:17.573Z,82.71
2024-01-20T23:36:45.249Z,82.89
2024-01-20T23:39:14.646Z,83.07
2024-01-20T23:41:42.200Z,83.10
2024-01-20T23:44:11.166Z,83.10
2024-01-20T23:46:38.693Z,83.01
2024-01-20T23:49:06.334Z,83.12
2024-01-20T23:51:34.442Z,83.31
2024-01-20T23:54:01.972Z,83.22
2024-01-20T23:56:29.456Z,83.22
2024-01-20T23:58:58.448Z,83.16
